createdAt,value
2023-04-27T00:01:42.512Z,-0.53
2023-04-27T00:04:09.436Z,-1.79
2023-04-27T00:06:36.467Z,-0.91
2023-04-27T00:09:04.658Z,-0.47
2023-04-27T00:11:31.910Z,0.16
2023-04-27T00:13:58.945Z,0.22
2023-04-27T00:16:26.716Z,0.39
2023-04-27T00:18:54.094Z,-0.53
2023-04-27T00:21:21.146Z,-1.20
2023-04-27T00:23:48.217Z,-1.59
2023-04-27T00:26:15.036Z,-0.13
2023-04-27T00:28:44.258Z,-0.20
2023-04-27T00:31:11.675Z,0.22
2023-04-27T00:33:38.559Z,0.32
2023-04-27T00:36:06.219Z,0.29
2023-04-27T00:38:33.151Z,0.49
2023-04-27T00:41:07.760Z,0.31
2023-04-27T00:43:43.819Z,-0.20
2023-04-27T00:46:13.166Z,0.26
2023-04-27T00:48:41.170Z,0.28
2023-04-27T00:51:08.634Z,0.30
2023-04-27T00:53:36.893Z,0.40
2023-04-27T00:56:07.515Z,0.31
2023-04-27T00:58:35.080Z,-0.13
2023-04-27T01:01:02.114Z,0.48
2023-04-27T01:03:30.758Z,0.30
2023-04-27T01:05:59.736Z,0.48
2023-04-27T01:08:26.468Z,0.62
2023-04-27T01:10:54.760Z,0.59
2023-04-27T01:13:22.237Z,0.10
2023-04-27T01:15:49.152Z,-0.70
2023-04-27T01:18:15.888Z,0.21
2023-04-27T01:20:43.295Z,-0.79
2023-04-27T01:23:17.447Z,-1.33
2023-04-27T01:25:45.009Z,-1.62
2023-04-27T01:28:12.301Z,-1.30
2023-04-27T01:30:39.097Z,-0.67
2023-04-27T01:33:06.564Z,0.68
2023-04-27T01:35:33.320Z,0.20
2023-04-27T01:38:00.504Z,1.08
2023-04-27T01:40:27.607Z,0.92
2023-04-27T01:42:54.273Z,0.86
2023-04-27T01:45:21.424Z,0.58
2023-04-27T01:47:52.004Z,0.70
2023-04-27T01:50:20.716Z,0.83
2023-04-27T01:52:47.597Z,0.46
2023-04-27T01:55:14.879Z,0.22
2023-04-27T01:57:42.590Z,0.56
2023-04-27T02:00:10.038Z,-0.11
2023-04-27T02:02:51.185Z,-0.11
2023-04-27T02:05:18.295Z,-0.28
2023-04-27T02:07:46.167Z,0.34
2023-04-27T02:10:12.939Z,0.19
2023-04-27T02:12:39.627Z,0.28
2023-04-27T02:15:08.694Z,0.42
2023-04-27T02:17:35.960Z,0.08
2023-04-27T02:20:02.727Z,0.49
2023-04-27T02:22:29.863Z,0.01
2023-04-27T02:24:56.753Z,0.04
2023-04-27T02:27:23.479Z,0.22
2023-04-27T02:29:50.974Z,-0.29
2023-04-27T02:32:18.258Z,-0.12
2023-04-27T02:34:45.428Z,-0.05
2023-04-27T02:37:12.519Z,-0.09
2023-04-27T02:39:39.324Z,-0.05
2023-04-27T02:42:06.410Z,0.10
2023-04-27T02:44:33.128Z,-0.61
2023-04-27T02:47:00.610Z,-1.05
2023-04-27T02:49:27.824Z,-0.97
2023-04-27T02:51:54.596Z,-0.61
2023-04-27T02:54:21.302Z,0.13
2023-04-27T02:56:48.065Z,-0.36
2023-04-27T02:59:15.131Z,-1.21
2023-04-27T03:01:42.276Z,-0.75
2023-04-27T03:04:09.820Z,-1.94
2023-04-27T03:06:36.676Z,-1.86
2023-04-27T03:09:03.977Z,-1.97
2023-04-27T03:11:31.148Z,-1.27
2023-04-27T03:13:58.126Z,-0.94
2023-04-27T03:16:24.968Z,-0.28
2023-04-27T03:18:51.744Z,-0.42
2023-04-27T03:21:18.768Z,-0.51
2023-04-27T03:23:49.069Z,-0.83
2023-04-27T03:26:16.581Z,-1.90
2023-04-27T03:28:43.539Z,-0.72
2023-04-27T03:31:12.210Z,-0.78
2023-04-27T03:33:39.940Z,-1.74
2023-04-27T03:36:08.262Z,-0.99
2023-04-27T03:38:35.715Z,-0.83
2023-04-27T03:41:03.117Z,-2.05
2023-04-27T03:43:29.942Z,-1.06
2023-04-27T03:45:56.872Z,-2.21
2023-04-27T03:48:24.308Z,-1.71
2023-04-27T03:50:53.234Z,-1.55
2023-04-27T03:53:20.797Z,-1.17
2023-04-27T03:55:48.326Z,-0.44
2023-04-27T03:58:17.470Z,-0.06
2023-04-27T04:01:03.421Z,0.29
2023-04-27T04:03:30.526Z,0.30
2023-04-27T04:05:57.504Z,-0.21
2023-04-27T04:08:24.288Z,0.13
2023-04-27T04:10:51.006Z,-0.19
2023-04-27T04:13:17.789Z,-0.84
2023-04-27T04:15:44.951Z,-0.88
2023-04-27T04:18:12.389Z,-0.19
2023-04-27T04:20:39.122Z,0.26
2023-04-27T04:23:06.284Z,-1.42
2023-04-27T04:25:33.674Z,-1.79
2023-04-27T04:28:01.120Z,-1.22
2023-04-27T04:30:29.067Z,-1.49
2023-04-27T04:32:55.852Z,-0.77
2023-04-27T04:35:22.686Z,-0.07
2023-04-27T04:37:49.993Z,-0.62
2023-04-27T04:40:17.139Z,0.38
2023-04-27T04:42:44.140Z,-1.23
2023-04-27T04:45:11.569Z,0.39
2023-04-27T04:47:39.814Z,0.54
2023-04-27T04:50:07.377Z,0.10
2023-04-27T04:52:35.177Z,-0.20
2023-04-27T04:55:01.928Z,-0.36
2023-04-27T04:57:31.284Z,-0.22
2023-04-27T04:59:58.238Z,0.05
2023-04-27T05:02:25.214Z,0.92
2023-04-27T05:04:57.027Z,-1.48
2023-04-27T05:07:25.109Z,-0.36
2023-04-27T05:09:52.689Z,-0.77
2023-04-27T05:12:19.512Z,-0.73
2023-04-27T05:14:46.725Z,0.86
2023-04-27T05:17:13.422Z,1.60
2023-04-27T05:19:40.310Z,1.40
2023-04-27T05:22:07.012Z,0.81
2023-04-27T05:24:34.326Z,1.22
2023-04-27T05:27:02.491Z,0.38
2023-04-27T05:29:29.665Z,1.33
2023-04-27T05:31:56.445Z,0.19
2023-04-27T05:34:23.257Z,1.21
2023-04-27T05:36:50.226Z,1.02
2023-04-27T05:39:17.125Z,1.17
2023-04-27T05:41:43.902Z,0.72
2023-04-27T05:44:10.986Z,1.67
2023-04-27T05:46:38.876Z,1.73
2023-04-27T05:49:05.880Z,2.33
2023-04-27T05:51:33.626Z,2.67
2023-04-27T05:54:02.114Z,2.06
2023-04-27T05:56:29.033Z,2.59
2023-04-27T05:58:55.763Z,3.47
2023-04-27T06:01:24.114Z,2.76
2023-04-27T06:03:51.070Z,3.51
2023-04-27T06:06:17.908Z,2.02
2023-04-27T06:08:44.844Z,2.88
2023-04-27T06:11:11.967Z,3.27
2023-04-27T06:13:39.270Z,3.18
2023-04-27T06:16:06.184Z,3.88
2023-04-27T06:18:32.931Z,3.86
2023-04-27T06:21:01.663Z,4.48
2023-04-27T06:23:28.867Z,4.79
2023-04-27T06:25:56.058Z,3.00
2023-04-27T06:28:23.440Z,3.37
2023-04-27T06:30:50.268Z,3.54
2023-04-27T06:33:17.857Z,4.36
2023-04-27T06:35:47.386Z,4.39
2023-04-27T06:38:14.398Z,3.84
2023-04-27T06:40:41.180Z,4.03
2023-04-27T06:43:08.337Z,4.05
2023-04-27T06:45:36.335Z,4.97
2023-04-27T06:48:03.351Z,4.24
2023-04-27T06:50:30.820Z,5.01
2023-04-27T06:52:57.963Z,4.15
2023-04-27T06:55:25.358Z,4.27
2023-04-27T06:57:52.506Z,6.18
2023-04-27T07:00:19.900Z,6.01
2023-04-27T07:02:47.103Z,5.66
2023-04-27T07:05:13.992Z,5.55
2023-04-27T07:07:40.716Z,5.30
2023-04-27T07:10:08.899Z,5.89
2023-04-27T07:12:35.854Z,6.01
2023-04-27T07:15:04.502Z,5.87
2023-04-27T07:17:31.364Z,6.12
2023-04-27T07:19:58.631Z,5.60
2023-04-27T07:22:25.715Z,5.75
2023-04-27T07:24:52.769Z,4.92
2023-04-27T07:27:20.439Z,5.23
2023-04-27T07:29:48.181Z,5.84
2023-04-27T07:32:15.235Z,5.81
2023-04-27T07:34:52.926Z,6.58
2023-04-27T07:37:22.167Z,6.24
2023-04-27T07:39:50.483Z,5.90
2023-04-27T07:42:18.585Z,6.37
2023-04-27T07:44:45.306Z,5.27
2023-04-27T07:47:13.305Z,4.79
2023-04-27T07:49:40.677Z,3.58
2023-04-27T07:52:08.421Z,4.79
2023-04-27T07:54:35.307Z,5.06
2023-04-27T07:57:07.890Z,5.47
2023-04-27T07:59:34.640Z,5.97
2023-04-27T08:02:17.838Z,7.07
2023-04-27T08:04:47.046Z,7.16
2023-04-27T08:07:18.484Z,7.03
2023-04-27T08:09:46.421Z,6.38
2023-04-27T08:12:13.144Z,8.15
2023-04-27T08:14:39.831Z,6.24
2023-04-27T08:17:07.299Z,5.92
2023-04-27T08:19:34.424Z,7.43
2023-04-27T08:22:01.463Z,7.13
2023-04-27T08:24:28.374Z,6.28
2023-04-27T08:26:55.616Z,7.06
2023-04-27T08:29:27.992Z,7.34
2023-04-27T08:31:58.855Z,7.79
2023-04-27T08:34:26.848Z,6.26
2023-04-27T08:36:54.659Z,6.06
2023-04-27T08:39:21.895Z,7.49
2023-04-27T08:41:49.013Z,7.29
2023-04-27T08:44:16.527Z,8.38
2023-04-27T08:46:43.408Z,7.14
2023-04-27T08:49:10.940Z,7.17
2023-04-27T08:51:37.839Z,8.05
2023-04-27T08:54:04.585Z,7.85
2023-04-27T08:56:31.935Z,7.92
2023-04-27T08:59:00.676Z,8.07
2023-04-27T09:01:27.770Z,8.03
2023-04-27T09:04:00.397Z,8.52
2023-04-27T09:06:32.066Z,7.69
2023-04-27T09:08:59.717Z,8.52
2023-04-27T09:11:38.619Z,7.56
2023-04-27T09:14:23.988Z,8.46
2023-04-27T09:16:58.587Z,8.90
2023-04-27T09:19:30.068Z,8.41
2023-04-27T09:22:11.691Z,10.00
2023-04-27T09:24:39.054Z,8.23
2023-04-27T09:27:07.210Z,8.95
2023-04-27T09:29:36.317Z,9.41
2023-04-27T09:32:16.786Z,9.44
2023-04-27T09:34:44.244Z,8.82
2023-04-27T09:37:11.647Z,7.03
2023-04-27T09:39:39.109Z,7.67
2023-04-27T09:42:06.242Z,7.32
2023-04-27T09:44:34.572Z,8.34
2023-04-27T09:47:01.376Z,8.17
2023-04-27T09:49:29.563Z,10.12
2023-04-27T09:51:58.818Z,8.38
2023-04-27T09:54:29.259Z,8.21
2023-04-27T09:57:30.176Z,9.17
2023-04-27T10:00:34.022Z,8.39
2023-04-27T10:03:19.885Z,9.19
2023-04-27T10:05:58.801Z,8.46
2023-04-27T10:08:26.827Z,8.03
2023-04-27T10:10:53.724Z,8.01
2023-04-27T10:13:26.816Z,8.64
2023-04-27T10:15:54.301Z,7.70
2023-04-27T10:18:29.854Z,10.40
2023-04-27T10:20:58.197Z,8.39
2023-04-27T10:23:27.521Z,8.69
2023-04-27T10:25:54.852Z,9.99
2023-04-27T10:28:21.620Z,9.59
2023-04-27T10:30:49.351Z,9.86
2023-04-27T10:33:21.795Z,10.32
2023-04-27T10:35:57.283Z,9.67
2023-04-27T10:38:31.051Z,9.44
2023-04-27T10:41:03.075Z,9.42
2023-04-27T10:43:31.953Z,7.90
2023-04-27T10:46:15.903Z,10.20
2023-04-27T10:48:44.626Z,9.11
2023-04-27T10:51:17.406Z,8.55
2023-04-27T10:53:44.770Z,7.41
2023-04-27T10:56:11.802Z,9.04
2023-04-27T11:01:09.241Z,10.55
2023-04-27T11:03:36.702Z,9.66
2023-04-27T11:06:05.652Z,11.32
2023-04-27T11:08:36.782Z,13.08
2023-04-27T11:11:05.361Z,13.30
2023-04-27T11:13:33.630Z,10.36
2023-04-27T11:16:00.967Z,10.82
2023-04-27T11:18:31.659Z,11.77
2023-04-27T11:21:18.840Z,9.38
2023-04-27T11:23:46.238Z,8.22
2023-04-27T11:26:16.030Z,7.72
2023-04-27T11:28:44.479Z,6.30
2023-04-27T11:31:11.848Z,8.29
2023-04-27T11:33:40.245Z,8.34
2023-04-27T11:36:21.178Z,9.27
2023-04-27T11:38:48.305Z,9.26
2023-04-27T11:41:16.179Z,10.22
2023-04-27T11:43:49.863Z,12.34
2023-04-27T11:46:21.308Z,12.86
2023-04-27T11:48:49.166Z,11.44
2023-04-27T11:51:16.384Z,11.45
2023-04-27T11:53:48.268Z,10.90
2023-04-27T11:56:15.372Z,10.61
2023-04-27T11:58:44.445Z,10.54
2023-04-27T12:01:13.526Z,10.28
2023-04-27T12:03:40.822Z,9.01
2023-04-27T12:06:27.787Z,10.28
2023-04-27T12:08:58.281Z,8.94
2023-04-27T12:11:28.786Z,8.19
2023-04-27T12:13:57.054Z,9.77
2023-04-27T12:16:23.850Z,9.86
2023-04-27T12:18:51.016Z,11.49
2023-04-27T12:21:18.425Z,11.47
2023-04-27T12:23:45.612Z,10.92
2023-04-27T12:26:14.957Z,11.87
2023-04-27T12:28:42.522Z,12.18
2023-04-27T12:31:13.509Z,9.84
2023-04-27T12:33:40.270Z,10.41
2023-04-27T12:36:07.412Z,11.23
2023-04-27T12:38:34.404Z,9.95
2023-04-27T12:41:02.280Z,9.55
2023-04-27T12:43:28.997Z,10.15
2023-04-27T12:45:56.311Z,10.26
2023-04-27T12:48:23.766Z,10.21
2023-04-27T12:50:51.535Z,10.92
2023-04-27T12:53:18.294Z,12.81
2023-04-27T12:55:45.114Z,15.39
2023-04-27T12:58:11.949Z,11.22
2023-04-27T13:00:39.357Z,8.85
2023-04-27T13:03:07.005Z,8.94
2023-04-27T13:05:33.760Z,10.27
2023-04-27T13:08:00.707Z,8.08
2023-04-27T13:10:29.610Z,12.27
2023-04-27T13:12:56.736Z,10.47
2023-04-27T13:15:23.482Z,9.13
2023-04-27T13:17:50.799Z,9.17
2023-04-27T13:20:17.701Z,8.65
2023-04-27T13:22:44.471Z,10.57
2023-04-27T13:25:11.553Z,11.11
2023-04-27T13:27:38.495Z,10.07
2023-04-27T13:30:06.768Z,11.37
2023-04-27T13:32:33.885Z,12.47
2023-04-27T13:35:00.645Z,10.51
2023-04-27T13:37:28.067Z,9.89
2023-04-27T13:39:54.755Z,11.61
2023-04-27T13:42:22.018Z,10.45
2023-04-27T13:44:48.978Z,9.62
2023-04-27T13:47:15.751Z,9.52
2023-04-27T13:49:42.979Z,8.87
2023-04-27T13:52:10.178Z,10.13
2023-04-27T13:54:37.486Z,7.69
2023-04-27T13:57:04.253Z,9.67
2023-04-27T13:59:30.985Z,8.65
2023-04-27T14:01:58.718Z,9.50
2023-04-27T14:04:25.553Z,10.90
2023-04-27T14:06:52.612Z,10.13
2023-04-27T14:09:19.432Z,11.03
2023-04-27T14:11:55.719Z,11.92
2023-04-27T14:14:24.212Z,12.98
2023-04-27T14:16:51.573Z,10.37
2023-04-27T14:19:20.605Z,11.94
2023-04-27T14:21:49.823Z,11.05
2023-04-27T14:24:16.872Z,10.41
2023-04-27T14:26:44.586Z,11.45
2023-04-27T14:29:12.188Z,10.21
2023-04-27T14:31:40.235Z,10.00
2023-04-27T14:34:08.061Z,11.06
2023-04-27T14:36:35.528Z,11.38
2023-04-27T14:39:02.796Z,12.16
2023-04-27T14:41:30.430Z,11.62
2023-04-27T14:43:57.505Z,11.78
2023-04-27T14:46:24.448Z,10.02
2023-04-27T14:48:51.760Z,11.28
2023-04-27T14:51:18.789Z,10.65
2023-04-27T14:53:45.571Z,11.16
2023-04-27T14:56:12.568Z,13.66
2023-04-27T14:58:39.364Z,11.95
2023-04-27T15:01:07.893Z,11.88
2023-04-27T15:03:35.024Z,12.15
2023-04-27T15:06:02.811Z,11.58
2023-04-27T15:08:32.683Z,13.65
2023-04-27T15:11:01.066Z,10.15
2023-04-27T15:13:28.254Z,11.96
2023-04-27T15:15:57.104Z,11.84
2023-04-27T15:18:24.905Z,12.05
2023-04-27T15:21:00.746Z,11.46
2023-04-27T15:23:27.917Z,10.73
2023-04-27T15:25:56.990Z,12.29
2023-04-27T15:28:24.311Z,11.85
2023-04-27T15:30:51.229Z,11.95
2023-04-27T15:33:18.886Z,11.72
2023-04-27T15:35:46.145Z,11.21
2023-04-27T15:38:14.847Z,9.64
2023-04-27T15:40:41.904Z,11.06
2023-04-27T15:43:08.888Z,11.09
2023-04-27T15:45:36.289Z,9.69
2023-04-27T15:48:03.211Z,10.50
2023-04-27T15:50:31.022Z,8.95
2023-04-27T15:52:58.165Z,9.91
2023-04-27T15:55:25.022Z,10.05
2023-04-27T15:57:52.608Z,9.47
2023-04-27T16:00:22.675Z,10.61
2023-04-27T16:02:49.845Z,10.58
2023-04-27T16:05:17.097Z,11.09
2023-04-27T16:07:45.921Z,9.22
2023-04-27T16:10:13.560Z,10.59
2023-04-27T16:12:40.897Z,11.52
2023-04-27T16:15:11.493Z,10.68
2023-04-27T16:17:39.193Z,9.18
2023-04-27T16:20:06.940Z,7.82
2023-04-27T16:22:35.094Z,9.62
2023-04-27T16:25:02.371Z,8.26
2023-04-27T16:27:29.238Z,8.74
2023-04-27T16:29:57.458Z,8.63
2023-04-27T16:32:24.542Z,8.34
2023-04-27T16:34:51.985Z,8.77
2023-04-27T16:37:18.965Z,10.49
2023-04-27T16:39:46.907Z,9.39
2023-04-27T16:42:18.678Z,8.79
2023-04-27T16:44:46.610Z,8.91
2023-04-27T16:47:13.778Z,8.72
2023-04-27T16:49:43.584Z,9.08
2023-04-27T16:52:11.282Z,8.03
2023-04-27T16:54:38.583Z,8.90
2023-04-27T16:57:05.419Z,8.60
2023-04-27T16:59:32.554Z,8.50
2023-04-27T17:02:08.996Z,7.71
2023-04-27T17:04:40.839Z,7.72
2023-04-27T17:07:09.309Z,8.40
2023-04-27T17:09:39.186Z,8.72
2023-04-27T17:12:10.985Z,9.36
2023-04-27T17:14:38.854Z,9.09
2023-04-27T17:17:06.496Z,8.91
2023-04-27T17:19:33.347Z,8.11
2023-04-27T17:22:00.575Z,8.54
2023-04-27T17:24:27.390Z,8.50
2023-04-27T17:26:54.646Z,7.46
2023-04-27T17:29:21.812Z,7.67
2023-04-27T17:31:50.432Z,8.58
2023-04-27T17:34:17.704Z,8.18
2023-04-27T17:36:44.473Z,7.88
2023-04-27T17:39:13.194Z,7.99
2023-04-27T17:41:40.875Z,7.14
2023-04-27T17:44:07.730Z,8.99
2023-04-27T17:46:34.641Z,9.45
2023-04-27T17:49:02.031Z,7.67
2023-04-27T17:51:28.746Z,8.04
2023-04-27T17:53:55.676Z,7.43
2023-04-27T17:56:22.811Z,7.64
2023-04-27T17:58:49.638Z,8.66
2023-04-27T18:01:17.372Z,7.13
2023-04-27T18:03:44.678Z,7.92
2023-04-27T18:06:11.758Z,6.81
2023-04-27T18:08:38.991Z,7.59
2023-04-27T18:11:06.727Z,7.02
2023-04-27T18:13:33.501Z,7.33
2023-04-27T18:16:00.216Z,7.07
2023-04-27T18:18:28.395Z,6.06
2023-04-27T18:20:55.470Z,6.80
2023-04-27T18:23:22.344Z,7.06
2023-04-27T18:25:49.782Z,6.38
2023-04-27T18:28:17.240Z,5.70
2023-04-27T18:30:44.031Z,5.98
2023-04-27T18:33:10.940Z,6.12
2023-04-27T18:35:37.991Z,5.69
2023-04-27T18:38:04.759Z,5.91
2023-04-27T18:40:32.783Z,6.23
2023-04-27T18:43:00.199Z,5.48
2023-04-27T18:45:27.206Z,5.71
2023-04-27T18:47:54.577Z,5.47
2023-04-27T18:50:21.425Z,4.79
2023-04-27T18:52:48.283Z,4.77
2023-04-27T18:55:16.839Z,4.80
2023-04-27T18:57:44.065Z,4.66
2023-04-27T19:00:13.965Z,4.55
2023-04-27T19:02:41.111Z,4.89
2023-04-27T19:05:13.109Z,5.55
2023-04-27T19:07:41.053Z,5.46
2023-04-27T19:10:08.530Z,4.05
2023-04-27T19:12:35.965Z,3.77
2023-04-27T19:15:03.851Z,3.61
2023-04-27T19:17:31.496Z,4.83
2023-04-27T19:19:58.741Z,5.11
2023-04-27T19:22:27.439Z,5.03
2023-04-27T19:24:54.608Z,4.59
2023-04-27T19:27:21.318Z,4.64
2023-04-27T19:29:53.654Z,4.70
2023-04-27T19:32:22.236Z,4.38
2023-04-27T19:34:49.402Z,4.55
2023-04-27T19:37:17.338Z,2.85
2023-04-27T19:39:44.431Z,3.90
2023-04-27T19:42:11.386Z,4.33
2023-04-27T19:44:38.076Z,2.18
2023-04-27T19:47:05.571Z,2.50
2023-04-27T19:49:33.732Z,2.02
2023-04-27T19:52:00.998Z,2.30
2023-04-27T19:54:27.892Z,3.19
2023-04-27T19:56:55.767Z,2.15
2023-04-27T19:59:22.884Z,2.49
2023-04-27T20:01:49.663Z,1.78
2023-04-27T20:04:18.198Z,3.16
2023-04-27T20:06:46.378Z,1.98
2023-04-27T20:09:13.156Z,2.04
2023-04-27T20:11:40.617Z,2.81
2023-04-27T20:14:07.334Z,1.41
2023-04-27T20:16:34.166Z,2.38
2023-04-27T20:19:01.194Z,2.08
2023-04-27T20:21:28.194Z,2.13
2023-04-27T20:23:55.550Z,2.65
2023-04-27T20:26:22.569Z,1.13
2023-04-27T20:28:49.637Z,2.21
2023-04-27T20:31:16.610Z,2.70
2023-04-27T20:33:43.421Z,2.89
2023-04-27T20:36:17.313Z,2.52
2023-04-27T20:38:46.200Z,3.17
2023-04-27T20:41:13.089Z,1.50
2023-04-27T20:43:40.594Z,1.42
2023-04-27T20:46:08.436Z,2.66
2023-04-27T20:48:35.273Z,2.23
2023-04-27T20:51:02.797Z,0.93
2023-04-27T20:53:29.995Z,1.46
2023-04-27T20:55:57.255Z,1.41
2023-04-27T20:58:24.010Z,2.06
2023-04-27T21:00:51.608Z,2.67
2023-04-27T21:03:18.766Z,1.24
2023-04-27T21:05:46.003Z,1.68
2023-04-27T21:08:12.784Z,1.23
2023-04-27T21:10:39.876Z,0.73
2023-04-27T21:13:07.127Z,1.65
2023-04-27T21:15:34.546Z,1.91
2023-04-27T21:18:02.007Z,2.42
2023-04-27T21:20:28.802Z,1.47
2023-04-27T21:22:56.265Z,0.79
2023-04-27T21:25:23.844Z,2.00
2023-04-27T21:27:51.022Z,-0.47
2023-04-27T21:30:18.495Z,-0.10
2023-04-27T21:32:45.442Z,0.40
2023-04-27T21:35:12.502Z,0.60
2023-04-27T21:37:39.216Z,1.31
2023-04-27T21:40:07.021Z,0.98
2023-04-27T21:42:33.711Z,0.13
2023-04-27T21:45:01.029Z,0.78
2023-04-27T21:47:28.144Z,0.42
2023-04-27T21:49:55.232Z,1.02
2023-04-27T21:52:21.989Z,1.56
2023-04-27T21:54:48.784Z,0.54
2023-04-27T21:57:16.931Z,0.13
2023-04-27T21:59:45.427Z,0.92
2023-04-27T22:02:12.729Z,1.61
2023-04-27T22:04:39.699Z,1.67
2023-04-27T22:07:10.911Z,-0.06
2023-04-27T22:09:38.232Z,1.07
2023-04-27T22:12:05.768Z,1.32
2023-04-27T22:14:32.901Z,0.23
2023-04-27T22:17:01.126Z,-0.79
2023-04-27T22:19:28.889Z,0.67
2023-04-27T22:21:55.761Z,-0.96
2023-04-27T22:24:22.707Z,0.68
2023-04-27T22:26:49.800Z,1.03
2023-04-27T22:29:16.793Z,-0.88
2023-04-27T22:31:44.271Z,0.72
2023-04-27T22:34:14.730Z,1.03
2023-04-27T22:36:42.032Z,0.29
2023-04-27T22:39:09.036Z,1.40
2023-04-27T22:41:36.151Z,-0.16
2023-04-27T22:44:02.967Z,0.58
2023-04-27T22:46:29.910Z,1.26
2023-04-27T22:48:58.648Z,-0.53
2023-04-27T22:51:27.305Z,0.01
2023-04-27T22:53:54.664Z,0.33
2023-04-27T22:56:22.536Z,1.40
2023-04-27T22:58:50.196Z,1.07
2023-04-27T23:01:17.084Z,0.32
2023-04-27T23:03:44.112Z,-0.71
2023-04-27T23:06:16.817Z,0.14
2023-04-27T23:08:46.022Z,-0.21
2023-04-27T23:11:15.495Z,-0.17
2023-04-27T23:13:42.390Z,1.29
2023-04-27T23:16:10.047Z,1.67
2023-04-27T23:18:37.115Z,0.81
2023-04-27T23:21:04.339Z,1.41
2023-04-27T23:23:31.172Z,1.43
2023-04-27T23:25:58.216Z,1.58
2023-04-27T23:28:24.974Z,0.19
2023-04-27T23:30:55.431Z,0.09
2023-04-27T23:33:22.831Z,0.36
2023-04-27T23:35:49.718Z,0.18
2023-04-27T23:38:16.623Z,0.57
2023-04-27T23:40:43.537Z,0.52
2023-04-27T23:43:10.566Z,-1.36
2023-04-27T23:45:37.738Z,-0.04
2023-04-27T23:48:04.920Z,-0.11
2023-04-27T23:50:32.012Z,-0.78
2023-04-27T23:52:58.947Z,-0.10
2023-04-27T23:55:25.623Z,0.14
2023-04-27T23:57:52.557Z,1.53
